EDW49Q LSZH-BKPR
Flight info
| Callsign | EDW49Q |
|---|---|
| Flight time | N/A |
| Altitude | 39000 |
| Route | DEGES Z2 XEBIX L607 ELMEM N606 GIRIS DCT NIVAS DCT PEVAL DCT VELIT DCT RINAV DCT ARBER ARBER1D |
| Aircraft | A343/H-SDE2E3FGHIJ4J5M1P2RWXYZ/LB1D1 |
Departure
| Time | 2026-04-30 13:23 |
|---|---|
| Airport | Zürich Airport (LSZH) |
Arrival
| Time | N/A |
|---|---|
| Airport | Priština Adem Jashari International Airport (BKPR) |
| Time | Latitude | Longitude | Altitude | Speed | Heading |
|---|---|---|---|---|---|
| 2026-04-30 12:27 | 47.46179 | 8.55492 | 1411 ft | 0 kts | 186° |
| 2026-04-30 13:06 | 47.46178 | 8.55492 | 1403 ft | 0 kts | 186° |
| 2026-04-30 13:06 | 47.46195 | 8.55495 | 1403 ft | 3 kts | 186° |
| 2026-04-30 13:06 | 47.46215 | 8.55498 | 1410 ft | 3 kts | 186° |
| 2026-04-30 13:06 | 47.46235 | 8.55501 | 1406 ft | 2 kts | 184° |
| 2026-04-30 13:07 | 47.46251 | 8.55505 | 1409 ft | 3 kts | 228° |
| 2026-04-30 13:07 | 47.46256 | 8.55527 | 1410 ft | 3 kts | 277° |
| 2026-04-30 13:07 | 47.46253 | 8.55557 | 1402 ft | 3 kts | 282° |
| 2026-04-30 13:07 | 47.46250 | 8.55580 | 1410 ft | 0 kts | 276° |
| 2026-04-30 13:08 | 47.46251 | 8.55568 | 1411 ft | 4 kts | 276° |
| 2026-04-30 13:08 | 47.46253 | 8.55537 | 1410 ft | 0 kts | 276° |
| 2026-04-30 13:13 | 47.46257 | 8.55488 | 1407 ft | 3 kts | 276° |
| 2026-04-30 13:14 | 47.46258 | 8.55464 | 1406 ft | 0 kts | 276° |
| 2026-04-30 13:14 | 47.46260 | 8.55446 | 1405 ft | 4 kts | 276° |
| 2026-04-30 13:14 | 47.46274 | 8.55231 | 1398 ft | 15 kts | 276° |
| 2026-04-30 13:15 | 47.46286 | 8.55066 | 1398 ft | 15 kts | 276° |
| 2026-04-30 13:15 | 47.46170 | 8.54984 | 1403 ft | 13 kts | 156° |
| 2026-04-30 13:15 | 47.46086 | 8.55040 | 1404 ft | 13 kts | 154° |
| 2026-04-30 13:16 | 47.46000 | 8.55101 | 1408 ft | 14 kts | 155° |
| 2026-04-30 13:16 | 47.45921 | 8.55113 | 1404 ft | 9 kts | 216° |
| 2026-04-30 13:16 | 47.45911 | 8.55025 | 1400 ft | 11 kts | 274° |
| 2026-04-30 13:17 | 47.45932 | 8.54716 | 1402 ft | 18 kts | 276° |
| 2026-04-30 13:17 | 47.45945 | 8.54526 | 1395 ft | 19 kts | 276° |
| 2026-04-30 13:17 | 47.45972 | 8.54144 | 1404 ft | 16 kts | 276° |
| 2026-04-30 13:18 | 47.45981 | 8.54015 | 1404 ft | 11 kts | 276° |
| 2026-04-30 13:18 | 47.45989 | 8.53893 | 1403 ft | 0 kts | 276° |
| 2026-04-30 13:20 | 47.45990 | 8.53891 | 1403 ft | 1 kts | 276° |
| 2026-04-30 13:20 | 47.45991 | 8.53847 | 1407 ft | 7 kts | 267° |
| 2026-04-30 13:20 | 47.45959 | 8.53775 | 1410 ft | 10 kts | 215° |
| 2026-04-30 13:21 | 47.45898 | 8.53768 | 1410 ft | 5 kts | 155° |
| 2026-04-30 13:21 | 47.45894 | 8.53795 | 1412 ft | 0 kts | 99° |
| 2026-04-30 13:22 | 47.45894 | 8.53796 | 1412 ft | 1 kts | 99° |
| 2026-04-30 13:22 | 47.45864 | 8.54168 | 1407 ft | 63 kts | 96° |
| 2026-04-30 13:23 | 47.45798 | 8.55117 | 1404 ft | 119 kts | 96° |
| 2026-04-30 13:23 | 47.45601 | 8.58054 | 2232 ft | 150 kts | 89° |
| 2026-04-30 13:24 | 47.45400 | 8.61249 | 3524 ft | 164 kts | 93° |
| 2026-04-30 13:24 | 47.45442 | 8.64659 | 4801 ft | 177 kts | 78° |
| 2026-04-30 13:25 | 47.45949 | 8.68777 | 5595 ft | 230 kts | 82° |
| 2026-04-30 13:25 | 47.46286 | 8.73906 | 6848 ft | 265 kts | 93° |
| 2026-04-30 13:26 | 47.45563 | 8.82275 | 9450 ft | 280 kts | 98° |
| 2026-04-30 13:26 | 47.44961 | 8.87992 | 11271 ft | 282 kts | 98° |
| 2026-04-30 13:27 | 47.44284 | 8.93913 | 12404 ft | 308 kts | 98° |
| 2026-04-30 13:28 | 47.43142 | 9.03822 | 14108 ft | 340 kts | 98° |
| 2026-04-30 13:28 | 47.42340 | 9.10765 | 15519 ft | 346 kts | 97° |
| 2026-04-30 13:28 | 47.41934 | 9.14294 | 16171 ft | 352 kts | 97° |
| 2026-04-30 13:29 | 47.41517 | 9.21520 | 17606 ft | 355 kts | 82° |
| 2026-04-30 13:29 | 47.42372 | 9.28768 | 18942 ft | 362 kts | 75° |
| 2026-04-30 13:30 | 47.44160 | 9.39642 | 20866 ft | 369 kts | 75° |
| 2026-04-30 13:31 | 47.45320 | 9.47102 | 22108 ft | 376 kts | 77° |
| 2026-04-30 13:31 | 47.44107 | 9.58570 | 23868 ft | 402 kts | 121° |
| 2026-04-30 13:32 | 47.40254 | 9.64744 | 24810 ft | 413 kts | 128° |
| 2026-04-30 13:32 | 47.36744 | 9.71408 | 25799 ft | 410 kts | 117° |
| 2026-04-30 13:33 | 47.33985 | 9.78764 | 26779 ft | 410 kts | 111° |
| 2026-04-30 13:33 | 47.31528 | 9.86389 | 27708 ft | 413 kts | 110° |
| 2026-04-30 13:34 | 47.30309 | 9.90233 | 28169 ft | 415 kts | 110° |
| 2026-04-30 13:34 | 47.26555 | 10.01844 | 29617 ft | 419 kts | 110° |
| 2026-04-30 13:35 | 47.25283 | 10.05710 | 30091 ft | 421 kts | 110° |
| 2026-04-30 13:35 | 47.22700 | 10.13509 | 30728 ft | 428 kts | 110° |
| 2026-04-30 13:36 | 47.20517 | 10.20085 | 31259 ft | 433 kts | 110° |
| 2026-04-30 13:36 | 47.19188 | 10.24080 | 31503 ft | 437 kts | 111° |
| 2026-04-30 13:36 | 47.16497 | 10.32157 | 32041 ft | 442 kts | 111° |
| 2026-04-30 13:37 | 47.15146 | 10.36227 | 32282 ft | 445 kts | 111° |
| 2026-04-30 13:37 | 47.12174 | 10.44263 | 32996 ft | 453 kts | 120° |
| 2026-04-30 13:38 | 47.07769 | 10.51137 | 33365 ft | 468 kts | 129° |
| 2026-04-30 13:38 | 47.05493 | 10.54570 | 33614 ft | 471 kts | 130° |
| 2026-04-30 13:38 | 47.00484 | 10.59931 | 33603 ft | 497 kts | 152° |